Atalanti — 5BYY2 — position and weather

sailwx.info

Track history (hours):
 
Tides and Currents Weather Stations Pressure Air Temp Water Temp Dewpoint Dewpoint Depression Visibility Wind Speed Wind Dir Waves Ship Positions

Atalanti

Last reported at 2014-Sep-30 15:33 UTC. Time now 2014-Sep-30 16:00 UTC.
Position N 53°27' W 003°13'.

Length 97 m; draft 4.1 m.

Type: Other ship. MMSI: 212279000.

Date/timePositionNaut miles runAvg speedWind from/ knotsBaromVisibWave heightAir tempDewpointWater temp
2014-Sep-30 15:33N 53°27' W 003°13'1 0.9
2014-Sep-30 14:33N 53°27' W 003°14'1 1.0
2014-Sep-30 13:33N 53°27' W 003°16'1 1.0
2014-Sep-30 12:33N 53°27' W 003°18'1 1.0
2014-Sep-30 11:33N 53°28' W 003°19'1 1.1
2014-Sep-30 10:33N 53°28' W 003°20'1 0.9
2014-Sep-30 09:33N 53°29' W 003°22'1 0.5
2014-Sep-30 08:33N 53°29' W 003°22'0 0.5
2014-Sep-30 07:33N 53°30' W 003°23'0 0.5
2014-Sep-30 06:33N 53°30' W 003°23'1 0.5
2014-Sep-30 05:28N 53°30' W 003°24'0 0.5
2014-Sep-30 04:32N 53°31' W 003°24'1 0.5
2014-Sep-30 03:33N 53°31' W 003°24'1 0.8
2014-Sep-30 02:32N 53°31' W 003°26'1 1.0
2014-Sep-30 01:31N 53°32' W 003°27'1 0.7
2014-Sep-30 00:31N 53°32' W 003°28'1 1.0
2014-Sep-29 23:13N 53°32' W 003°31'1 0.9
2014-Sep-29 22:24N 53°32' W 003°32'1 0.4
2014-Sep-29 20:32N 53°32' W 003°33'0 0.0
2014-Sep-29 19:33N 53°32' W 003°33'0 0.1
2014-Sep-29 18:33N 53°32' W 003°33'0 0.0
2014-Sep-29 17:33N 53°32' W 003°33'0 0.1
2014-Sep-29 16:33N 53°32' W 003°33'0 0.3
2014-Sep-29 15:33N 53°32' W 003°34'0 0.3
2014-Sep-29 14:33N 53°31' W 003°34'0 0.1
2014-Sep-29 13:34N 53°31' W 003°34'2 1.7
2014-Sep-29 12:33N 53°32' W 003°31'0 0.0
2014-Sep-29 10:10N 53°32' W 003°31'0 0.0
2014-Sep-29 06:26N 53°32' W 003°31'0 0.4
2014-Sep-29 05:33N 53°32' W 003°31'0 0.0
2014-Sep-29 04:33N 53°32' W 003°31'0 0.0
2014-Sep-29 03:33N 53°32' W 003°31'0 0.0
2014-Sep-29 02:31N 53°32' W 003°31'0 0.0
2014-Sep-29 01:33N 53°32' W 003°31'0 0.0
2014-Sep-29 00:34N 53°32' W 003°31'0 0.0
2014-Sep-28 23:29N 53°32' W 003°31'0 0.0
2014-Sep-28 22:33N 53°32' W 003°31'0 0.0
2014-Sep-28 13:27N 53°32' W 003°31'0 0.0
2014-Sep-28 12:32N 53°32' W 003°31'0 0.0
2014-Sep-28 11:33N 53°32' W 003°31'0 0.1
2014-Sep-28 10:15N 53°32' W 003°31'0 0.1
2014-Sep-28 09:33N 53°32' W 003°31'0 0.0
2014-Sep-28 08:33N 53°32' W 003°31'0 0.0
2014-Sep-28 07:34N 53°32' W 003°31'0 0.0
2014-Sep-28 06:33N 53°32' W 003°31'0 0.0
2014-Sep-28 05:31N 53°32' W 003°31'0 0.0
2014-Sep-28 04:33N 53°32' W 003°31'0 0.0
2014-Sep-28 03:33N 53°32' W 003°31'0 0.0
2014-Sep-28 02:33N 53°32' W 003°31'0 0.0
2014-Sep-28 01:33N 53°32' W 003°31'0 0.1
2014-Sep-28 00:30N 53°32' W 003°31'0 0.1
2014-Sep-27 23:33N 53°32' W 003°31'0 0.0
2014-Sep-27 22:33N 53°32' W 003°31'1 0.1
2014-Sep-27 16:32N 53°32' W 003°30'8 8.3
2014-Sep-27 15:33N 53°32' W 003°16'7 7.1
2014-Sep-27 14:33N 53°29' W 003°05'3 3.0
2014-Sep-27 13:30N 53°27' W 003°01'0 0.2
2014-Sep-27 12:24N 53°27' W 003°01'0 0.0
2014-Sep-27 11:30N 53°27' W 003°01'0 0.0
2014-Sep-27 10:30N 53°27' W 003°01'0 0.0
2014-Sep-27 09:30N 53°27' W 003°01'0 0.0
2014-Sep-27 08:24N 53°27' W 003°01'0 0.0
2014-Sep-27 07:30N 53°27' W 003°01'0 0.0
2014-Sep-27 06:30N 53°27' W 003°01'0 0.0
2014-Sep-27 05:24N 53°27' W 003°01'0 0.0
2014-Sep-27 04:33N 53°27' W 003°01'0 0.0
2014-Sep-27 03:30N 53°27' W 003°01'0 0.0
2014-Sep-27 02:30N 53°27' W 003°01'0 0.0
2014-Sep-27 01:30N 53°27' W 003°01'0 0.0
2014-Sep-27 00:30N 53°27' W 003°01'0 0.0
2014-Sep-26 23:30N 53°27' W 003°01'0 0.0
2014-Sep-26 22:30N 53°27' W 003°01'0 0.0
2014-Sep-26 21:30N 53°27' W 003°01'0 0.0
2014-Sep-26 20:30N 53°27' W 003°01'0 0.0
2014-Sep-26 19:30N 53°27' W 003°01'0 0.0
2014-Sep-26 18:30N 53°27' W 003°01'0 0.0
2014-Sep-26 17:24N 53°27' W 003°01'0 0.0
2014-Sep-26 16:18N 53°27' W 003°01'0 0.0
2014-Sep-26 15:30N 53°27' W 003°01'0 0.0
2014-Sep-26 14:30N 53°27' W 003°01'0 0.0
2014-Sep-26 13:30N 53°27' W 003°01'0 0.0
2014-Sep-26 12:30N 53°27' W 003°01'0 0.0
2014-Sep-26 11:30N 53°27' W 003°01'0 0.0
2014-Sep-26 10:30N 53°27' W 003°01'0 0.0
2014-Sep-26 09:30N 53°27' W 003°01'0 0.0
2014-Sep-26 08:30N 53°27' W 003°01'0 0.0
2014-Sep-26 07:30N 53°27' W 003°01'0 0.0
2014-Sep-26 06:30N 53°27' W 003°01'0 0.0
2014-Sep-26 05:18N 53°27' W 003°01'0 0.0
2014-Sep-26 04:18N 53°27' W 003°01'0 0.0
2014-Sep-26 03:30N 53°27' W 003°01'0 0.0
2014-Sep-26 02:30N 53°27' W 003°01'0 0.0
2014-Sep-26 01:30N 53°27' W 003°01'0 0.0
2014-Sep-26 00:30N 53°27' W 003°01'0 0.0
2014-Sep-25 23:30N 53°27' W 003°01'0 0.0
2014-Sep-25 22:30N 53°27' W 003°01'0 0.0
2014-Sep-25 21:30N 53°27' W 003°01'0 0.0
2014-Sep-25 20:30N 53°27' W 003°01'0 0.0
2014-Sep-25 19:30N 53°27' W 003°01'0 0.0
2014-Sep-25 18:30N 53°27' W 003°01'0 0.0
2014-Sep-25 17:18N 53°27' W 003°01'0 0.0
2014-Sep-25 16:30N 53°27' W 003°01'0 0.0
2014-Sep-25 15:30N 53°27' W 003°01'0 0.0
2014-Sep-25 14:30N 53°27' W 003°01'0 0.0
2014-Sep-25 13:24N 53°27' W 003°01'0 0.0
2014-Sep-25 12:30N 53°27' W 003°01'0 0.0
2014-Sep-25 11:30N 53°27' W 003°01'0 0.0
2014-Sep-25 10:30N 53°27' W 003°01'0 0.0
2014-Sep-25 09:30N 53°27' W 003°01'0 0.0
2014-Sep-25 08:30N 53°27' W 003°01'0 0.0
2014-Sep-25 07:30N 53°27' W 003°01'0 0.0
2014-Sep-25 06:30N 53°27' W 003°01'0 0.0
2014-Sep-25 05:30N 53°27' W 003°01'0 0.0
2014-Sep-25 04:24N 53°27' W 003°01'0 0.0
2014-Sep-25 03:30N 53°27' W 003°01'0 0.0
2014-Sep-25 02:30N 53°27' W 003°01'0 0.0
2014-Sep-25 01:30N 53°27' W 003°01'0 0.0
2014-Sep-25 00:30N 53°27' W 003°01'0 0.0
2014-Sep-24 23:30N 53°27' W 003°01'0 0.0
2014-Sep-24 22:30N 53°27' W 003°01'0 0.0
2014-Sep-24 21:30N 53°27' W 003°01'0 0.0
2014-Sep-24 20:30N 53°27' W 003°01'0 0.0
2014-Sep-24 19:30N 53°27' W 003°01'0 0.0
2014-Sep-24 18:30N 53°27' W 003°01'0 0.0
2014-Sep-24 17:30N 53°27' W 003°01'0 0.0
2014-Sep-24 16:12N 53°27' W 003°01'0 0.0
2014-Sep-24 15:24N 53°27' W 003°01'0 0.0
2014-Sep-24 14:30N 53°27' W 003°01'0 0.0
2014-Sep-24 13:30N 53°27' W 003°01'0 0.0
2014-Sep-24 12:30N 53°27' W 003°01'0 0.0
2014-Sep-24 11:30N 53°27' W 003°01'0 0.0
2014-Sep-24 10:30N 53°27' W 003°01'0 0.0
2014-Sep-24 09:30N 53°27' W 003°01'0 0.0
2014-Sep-24 08:30N 53°27' W 003°01'0 0.0
2014-Sep-24 07:30N 53°27' W 003°01'0 0.0
2014-Sep-24 06:30N 53°27' W 003°01'0 0.0
2014-Sep-24 05:30N 53°27' W 003°01'0 0.0
2014-Sep-24 04:30N 53°27' W 003°01'0 0.0
2014-Sep-24 03:30N 53°27' W 003°01'0 0.0
2014-Sep-24 02:30N 53°27' W 003°01'0 0.0
2014-Sep-24 01:30N 53°27' W 003°01'0 0.0
2014-Sep-24 00:30N 53°27' W 003°01'0 0.0
2014-Sep-23 23:30N 53°27' W 003°01'0 0.0
2014-Sep-23 22:27N 53°27' W 003°01'0 0.0
2014-Sep-23 21:33N 53°27' W 003°01'0 0.1
2014-Sep-23 20:33N 53°27' W 003°01'0 0.3
2014-Sep-23 19:33N 53°27' W 003°01'2 1.5
2014-Sep-23 18:33N 53°28' W 003°03'7 6.7
2014-Sep-23 17:33N 53°31' W 003°13'7 7.1
2014-Sep-23 16:31N 53°30' W 003°25'2 1.4
2014-Sep-23 15:22N 53°30' W 003°28'0 0.1
2014-Sep-23 13:14N 53°30' W 003°28'0 0.1
2014-Sep-23 12:09N 53°30' W 003°28'3 2.6
2014-Sep-23 11:05N 53°30' W 003°32'  
Track history (hours):
 
Tides and Currents Weather Stations Pressure Air Temp Water Temp Dewpoint Dewpoint Depression Visibility Wind Speed Wind Dir Waves Ship Positions

Atalanti

Last reported at 2014-Sep-30 15:33 UTC. Time now 2014-Sep-30 16:00 UTC.
Position N 53°27' W 003°13'.

Length 97 m; draft 4.1 m.

Type: Other ship. MMSI: 212279000.

Date/timePositionNaut miles runAvg speedWind from/ knotsBaromVisibWave heightAir tempDewpointWater temp
2014-Sep-30 15:33N 53°27' W 003°13'1 0.9
2014-Sep-30 14:33N 53°27' W 003°14'1 1.0
2014-Sep-30 13:33N 53°27' W 003°16'1 1.0
2014-Sep-30 12:33N 53°27' W 003°18'1 1.0
2014-Sep-30 11:33N 53°28' W 003°19'1 1.1
2014-Sep-30 10:33N 53°28' W 003°20'1 0.9
2014-Sep-30 09:33N 53°29' W 003°22'1 0.5
2014-Sep-30 08:33N 53°29' W 003°22'0 0.5
2014-Sep-30 07:33N 53°30' W 003°23'0 0.5
2014-Sep-30 06:33N 53°30' W 003°23'1 0.5
2014-Sep-30 05:28N 53°30' W 003°24'0 0.5
2014-Sep-30 04:32N 53°31' W 003°24'1 0.5
2014-Sep-30 03:33N 53°31' W 003°24'1 0.8
2014-Sep-30 02:32N 53°31' W 003°26'1 1.0
2014-Sep-30 01:31N 53°32' W 003°27'1 0.7
2014-Sep-30 00:31N 53°32' W 003°28'1 1.0
2014-Sep-29 23:13N 53°32' W 003°31'1 0.9
2014-Sep-29 22:24N 53°32' W 003°32'1 0.4
2014-Sep-29 20:32N 53°32' W 003°33'0 0.0
2014-Sep-29 19:33N 53°32' W 003°33'0 0.1
2014-Sep-29 18:33N 53°32' W 003°33'0 0.0
2014-Sep-29 17:33N 53°32' W 003°33'0 0.1
2014-Sep-29 16:33N 53°32' W 003°33'0 0.3
2014-Sep-29 15:33N 53°32' W 003°34'0 0.3
2014-Sep-29 14:33N 53°31' W 003°34'0 0.1
2014-Sep-29 13:34N 53°31' W 003°34'2 1.7
2014-Sep-29 12:33N 53°32' W 003°31'0 0.0
2014-Sep-29 10:10N 53°32' W 003°31'0 0.0
2014-Sep-29 06:26N 53°32' W 003°31'0 0.4
2014-Sep-29 05:33N 53°32' W 003°31'0 0.0
2014-Sep-29 04:33N 53°32' W 003°31'0 0.0
2014-Sep-29 03:33N 53°32' W 003°31'0 0.0
2014-Sep-29 02:31N 53°32' W 003°31'0 0.0
2014-Sep-29 01:33N 53°32' W 003°31'0 0.0
2014-Sep-29 00:34N 53°32' W 003°31'0 0.0
2014-Sep-28 23:29N 53°32' W 003°31'0 0.0
2014-Sep-28 22:33N 53°32' W 003°31'0 0.0
2014-Sep-28 13:27N 53°32' W 003°31'0 0.0
2014-Sep-28 12:32N 53°32' W 003°31'0 0.0
2014-Sep-28 11:33N 53°32' W 003°31'0 0.1
2014-Sep-28 10:15N 53°32' W 003°31'0 0.1
2014-Sep-28 09:33N 53°32' W 003°31'0 0.0
2014-Sep-28 08:33N 53°32' W 003°31'0 0.0
2014-Sep-28 07:34N 53°32' W 003°31'0 0.0
2014-Sep-28 06:33N 53°32' W 003°31'0 0.0
2014-Sep-28 05:31N 53°32' W 003°31'0 0.0
2014-Sep-28 04:33N 53°32' W 003°31'0 0.0
2014-Sep-28 03:33N 53°32' W 003°31'0 0.0
2014-Sep-28 02:33N 53°32' W 003°31'0 0.0
2014-Sep-28 01:33N 53°32' W 003°31'0 0.1
2014-Sep-28 00:30N 53°32' W 003°31'0 0.1
2014-Sep-27 23:33N 53°32' W 003°31'0 0.0
2014-Sep-27 22:33N 53°32' W 003°31'1 0.1
2014-Sep-27 16:32N 53°32' W 003°30'8 8.3
2014-Sep-27 15:33N 53°32' W 003°16'7 7.1
2014-Sep-27 14:33N 53°29' W 003°05'3 3.0
2014-Sep-27 13:30N 53°27' W 003°01'0 0.2
2014-Sep-27 12:24N 53°27' W 003°01'0 0.0
2014-Sep-27 11:30N 53°27' W 003°01'0 0.0
2014-Sep-27 10:30N 53°27' W 003°01'0 0.0
2014-Sep-27 09:30N 53°27' W 003°01'0 0.0
2014-Sep-27 08:24N 53°27' W 003°01'0 0.0
2014-Sep-27 07:30N 53°27' W 003°01'0 0.0
2014-Sep-27 06:30N 53°27' W 003°01'0 0.0
2014-Sep-27 05:24N 53°27' W 003°01'0 0.0
2014-Sep-27 04:33N 53°27' W 003°01'0 0.0
2014-Sep-27 03:30N 53°27' W 003°01'0 0.0
2014-Sep-27 02:30N 53°27' W 003°01'0 0.0
2014-Sep-27 01:30N 53°27' W 003°01'0 0.0
2014-Sep-27 00:30N 53°27' W 003°01'0 0.0
2014-Sep-26 23:30N 53°27' W 003°01'0 0.0
2014-Sep-26 22:30N 53°27' W 003°01'0 0.0
2014-Sep-26 21:30N 53°27' W 003°01'0 0.0
2014-Sep-26 20:30N 53°27' W 003°01'0 0.0
2014-Sep-26 19:30N 53°27' W 003°01'0 0.0
2014-Sep-26 18:30N 53°27' W 003°01'0 0.0
2014-Sep-26 17:24N 53°27' W 003°01'0 0.0
2014-Sep-26 16:18N 53°27' W 003°01'0 0.0
2014-Sep-26 15:30N 53°27' W 003°01'0 0.0
2014-Sep-26 14:30N 53°27' W 003°01'0 0.0
2014-Sep-26 13:30N 53°27' W 003°01'0 0.0
2014-Sep-26 12:30N 53°27' W 003°01'0 0.0
2014-Sep-26 11:30N 53°27' W 003°01'0 0.0
2014-Sep-26 10:30N 53°27' W 003°01'0 0.0
2014-Sep-26 09:30N 53°27' W 003°01'0 0.0
2014-Sep-26 08:30N 53°27' W 003°01'0 0.0
2014-Sep-26 07:30N 53°27' W 003°01'0 0.0
2014-Sep-26 06:30N 53°27' W 003°01'0 0.0
2014-Sep-26 05:18N 53°27' W 003°01'0 0.0
2014-Sep-26 04:18N 53°27' W 003°01'0 0.0
2014-Sep-26 03:30N 53°27' W 003°01'0 0.0
2014-Sep-26 02:30N 53°27' W 003°01'0 0.0
2014-Sep-26 01:30N 53°27' W 003°01'0 0.0
2014-Sep-26 00:30N 53°27' W 003°01'0 0.0
2014-Sep-25 23:30N 53°27' W 003°01'0 0.0
2014-Sep-25 22:30N 53°27' W 003°01'0 0.0
2014-Sep-25 21:30N 53°27' W 003°01'0 0.0
2014-Sep-25 20:30N 53°27' W 003°01'0 0.0
2014-Sep-25 19:30N 53°27' W 003°01'0 0.0
2014-Sep-25 18:30N 53°27' W 003°01'0 0.0
2014-Sep-25 17:18N 53°27' W 003°01'0 0.0
2014-Sep-25 16:30N 53°27' W 003°01'0 0.0
2014-Sep-25 15:30N 53°27' W 003°01'0 0.0
2014-Sep-25 14:30N 53°27' W 003°01'0 0.0
2014-Sep-25 13:24N 53°27' W 003°01'0 0.0
2014-Sep-25 12:30N 53°27' W 003°01'0 0.0
2014-Sep-25 11:30N 53°27' W 003°01'0 0.0
2014-Sep-25 10:30N 53°27' W 003°01'0 0.0
2014-Sep-25 09:30N 53°27' W 003°01'0 0.0
2014-Sep-25 08:30N 53°27' W 003°01'0 0.0
2014-Sep-25 07:30N 53°27' W 003°01'0 0.0
2014-Sep-25 06:30N 53°27' W 003°01'0 0.0
2014-Sep-25 05:30N 53°27' W 003°01'0 0.0
2014-Sep-25 04:24N 53°27' W 003°01'0 0.0
2014-Sep-25 03:30N 53°27' W 003°01'0 0.0
2014-Sep-25 02:30N 53°27' W 003°01'0 0.0
2014-Sep-25 01:30N 53°27' W 003°01'0 0.0
2014-Sep-25 00:30N 53°27' W 003°01'0 0.0
2014-Sep-24 23:30N 53°27' W 003°01'0 0.0
2014-Sep-24 22:30N 53°27' W 003°01'0 0.0
2014-Sep-24 21:30N 53°27' W 003°01'0 0.0
2014-Sep-24 20:30N 53°27' W 003°01'0 0.0
2014-Sep-24 19:30N 53°27' W 003°01'0 0.0
2014-Sep-24 18:30N 53°27' W 003°01'0 0.0
2014-Sep-24 17:30N 53°27' W 003°01'0 0.0
2014-Sep-24 16:12N 53°27' W 003°01'0 0.0
2014-Sep-24 15:24N 53°27' W 003°01'0 0.0
2014-Sep-24 14:30N 53°27' W 003°01'0 0.0
2014-Sep-24 13:30N 53°27' W 003°01'0 0.0
2014-Sep-24 12:30N 53°27' W 003°01'0 0.0
2014-Sep-24 11:30N 53°27' W 003°01'0 0.0
2014-Sep-24 10:30N 53°27' W 003°01'0 0.0
2014-Sep-24 09:30N 53°27' W 003°01'0 0.0
2014-Sep-24 08:30N 53°27' W 003°01'0 0.0
2014-Sep-24 07:30N 53°27' W 003°01'0 0.0
2014-Sep-24 06:30N 53°27' W 003°01'0 0.0
2014-Sep-24 05:30N 53°27' W 003°01'0 0.0
2014-Sep-24 04:30N 53°27' W 003°01'0 0.0
2014-Sep-24 03:30N 53°27' W 003°01'0 0.0
2014-Sep-24 02:30N 53°27' W 003°01'0 0.0
2014-Sep-24 01:30N 53°27' W 003°01'0 0.0
2014-Sep-24 00:30N 53°27' W 003°01'0 0.0
2014-Sep-23 23:30N 53°27' W 003°01'0 0.0
2014-Sep-23 22:27N 53°27' W 003°01'0 0.0
2014-Sep-23 21:33N 53°27' W 003°01'0 0.1
2014-Sep-23 20:33N 53°27' W 003°01'0 0.3
2014-Sep-23 19:33N 53°27' W 003°01'2 1.5
2014-Sep-23 18:33N 53°28' W 003°03'7 6.7
2014-Sep-23 17:33N 53°31' W 003°13'7 7.1
2014-Sep-23 16:31N 53°30' W 003°25'2 1.4
2014-Sep-23 15:22N 53°30' W 003°28'0 0.1
2014-Sep-23 13:14N 53°30' W 003°28'0 0.1
2014-Sep-23 12:09N 53°30' W 003°28'3 2.6
2014-Sep-23 11:05N 53°30' W 003°32'  

Dump ship's entire track history